sensor_id;sensor_type;location;lat;lon;timestamp;temperature;humidity
7447;DHT22;3765;47.962;7.952;2023-07-20T00:00:01;21.70;48.70
7447;DHT22;3765;47.962;7.952;2023-07-20T00:02:30;21.70;48.70
7447;DHT22;3765;47.962;7.952;2023-07-20T00:04:59;21.60;48.70
7447;DHT22;3765;47.962;7.952;2023-07-20T00:07:27;21.60;48.80
7447;DHT22;3765;47.962;7.952;2023-07-20T00:09:55;21.60;48.80
7447;DHT22;3765;47.962;7.952;2023-07-20T00:12:24;21.60;48.90
7447;DHT22;3765;47.962;7.952;2023-07-20T00:14:52;21.50;49.00
7447;DHT22;3765;47.962;7.952;2023-07-20T00:17:22;21.60;49.20
7447;DHT22;3765;47.962;7.952;2023-07-20T00:19:50;21.50;49.10
7447;DHT22;3765;47.962;7.952;2023-07-20T00:22:18;21.50;49.10
7447;DHT22;3765;47.962;7.952;2023-07-20T00:24:46;21.50;49.10
7447;DHT22;3765;47.962;7.952;2023-07-20T00:27:16;21.50;49.10
7447;DHT22;3765;47.962;7.952;2023-07-20T00:29:44;21.50;49.10
7447;DHT22;3765;47.962;7.952;2023-07-20T00:32:12;21.50;49.20
7447;DHT22;3765;47.962;7.952;2023-07-20T00:34:42;21.50;49.40
7447;DHT22;3765;47.962;7.952;2023-07-20T00:37:10;21.40;49.80
7447;DHT22;3765;47.962;7.952;2023-07-20T00:39:39;21.30;50.10
7447;DHT22;3765;47.962;7.952;2023-07-20T00:42:07;21.30;50.30
7447;DHT22;3765;47.962;7.952;2023-07-20T00:44:35;21.20;50.50
7447;DHT22;3765;47.962;7.952;2023-07-20T00:47:04;21.10;50.80
7447;DHT22;3765;47.962;7.952;2023-07-20T00:49:33;21.10;51.00
7447;DHT22;3765;47.962;7.952;2023-07-20T00:52:04;21.10;51.20
7447;DHT22;3765;47.962;7.952;2023-07-20T00:54:34;21.00;51.50
7447;DHT22;3765;47.962;7.952;2023-07-20T00:57:04;21.00;51.50
7447;DHT22;3765;47.962;7.952;2023-07-20T00:59:35;21.00;51.60
7447;DHT22;3765;47.962;7.952;2023-07-20T01:02:04;21.00;51.80
7447;DHT22;3765;47.962;7.952;2023-07-20T01:04:32;21.00;52.10
7447;DHT22;3765;47.962;7.952;2023-07-20T01:07:09;20.90;52.30
7447;DHT22;3765;47.962;7.952;2023-07-20T01:09:44;20.80;52.40
7447;DHT22;3765;47.962;7.952;2023-07-20T01:12:18;20.90;52.50
7447;DHT22;3765;47.962;7.952;2023-07-20T01:14:48;20.90;52.70
7447;DHT22;3765;47.962;7.952;2023-07-20T01:17:16;20.80;53.00
7447;DHT22;3765;47.962;7.952;2023-07-20T01:19:45;20.80;53.20
7447;DHT22;3765;47.962;7.952;2023-07-20T01:25:24;20.70;53.50
7447;DHT22;3765;47.962;7.952;2023-07-20T01:28:17;20.70;53.50
7447;DHT22;3765;47.962;7.952;2023-07-20T01:30:59;20.60;53.70
7447;DHT22;3765;47.962;7.952;2023-07-20T01:33:32;20.60;53.90
7447;DHT22;3765;47.962;7.952;2023-07-20T01:36:02;20.60;54.00
7447;DHT22;3765;47.962;7.952;2023-07-20T01:38:31;20.50;54.00
7447;DHT22;3765;47.962;7.952;2023-07-20T01:40:59;20.50;54.20
7447;DHT22;3765;47.962;7.952;2023-07-20T01:43:27;20.50;54.20
7447;DHT22;3765;47.962;7.952;2023-07-20T01:45:56;20.50;54.30
7447;DHT22;3765;47.962;7.952;2023-07-20T01:48:24;20.50;54.50
7447;DHT22;3765;47.962;7.952;2023-07-20T01:50:53;20.40;54.60
7447;DHT22;3765;47.962;7.952;2023-07-20T01:53:22;20.40;54.80
7447;DHT22;3765;47.962;7.952;2023-07-20T01:55:52;20.40;55.00
7447;DHT22;3765;47.962;7.952;2023-07-20T01:58:21;20.40;55.10
7447;DHT22;3765;47.962;7.952;2023-07-20T02:00:49;20.30;55.30
7447;DHT22;3765;47.962;7.952;2023-07-20T02:03:17;20.30;55.40
7447;DHT22;3765;47.962;7.952;2023-07-20T02:05:45;20.30;55.50
7447;DHT22;3765;47.962;7.952;2023-07-20T02:08:15;20.20;55.70
7447;DHT22;3765;47.962;7.952;2023-07-20T02:10:45;20.20;55.90
7447;DHT22;3765;47.962;7.952;2023-07-20T02:13:14;20.10;56.20
7447;DHT22;3765;47.962;7.952;2023-07-20T02:15:42;20.00;56.30
7447;DHT22;3765;47.962;7.952;2023-07-20T02:18:10;20.00;56.50
7447;DHT22;3765;47.962;7.952;2023-07-20T02:20:40;19.80;56.70
7447;DHT22;3765;47.962;7.952;2023-07-20T02:23:10;19.80;56.90
7447;DHT22;3765;47.962;7.952;2023-07-20T02:25:40;19.80;57.10
7447;DHT22;3765;47.962;7.952;2023-07-20T02:28:09;19.70;57.40
7447;DHT22;3765;47.962;7.952;2023-07-20T02:30:38;19.60;57.70
7447;DHT22;3765;47.962;7.952;2023-07-20T02:33:07;19.60;57.80
7447;DHT22;3765;47.962;7.952;2023-07-20T02:35:35;19.50;57.80
7447;DHT22;3765;47.962;7.952;2023-07-20T02:38:04;19.50;57.90
7447;DHT22;3765;47.962;7.952;2023-07-20T02:40:34;19.40;57.90
7447;DHT22;3765;47.962;7.952;2023-07-20T02:43:03;19.40;58.10
7447;DHT22;3765;47.962;7.952;2023-07-20T02:45:31;19.30;58.20
7447;DHT22;3765;47.962;7.952;2023-07-20T02:47:59;19.30;58.20
7447;DHT22;3765;47.962;7.952;2023-07-20T02:50:29;19.30;58.30
7447;DHT22;3765;47.962;7.952;2023-07-20T02:52:58;19.30;58.40
7447;DHT22;3765;47.962;7.952;2023-07-20T02:55:26;19.30;58.50
7447;DHT22;3765;47.962;7.952;2023-07-20T02:57:54;19.30;58.60
7447;DHT22;3765;47.962;7.952;2023-07-20T03:00:24;19.20;58.60
7447;DHT22;3765;47.962;7.952;2023-07-20T03:02:52;19.20;58.70
7447;DHT22;3765;47.962;7.952;2023-07-20T03:05:22;19.10;59.00
7447;DHT22;3765;47.962;7.952;2023-07-20T03:07:52;19.10;59.30
7447;DHT22;3765;47.962;7.952;2023-07-20T03:10:20;19.00;59.70
7447;DHT22;3765;47.962;7.952;2023-07-20T03:12:48;19.00;59.90
7447;DHT22;3765;47.962;7.952;2023-07-20T03:15:16;19.00;60.10
7447;DHT22;3765;47.962;7.952;2023-07-20T03:17:46;19.00;60.20
7447;DHT22;3765;47.962;7.952;2023-07-20T03:20:14;19.00;60.20
7447;DHT22;3765;47.962;7.952;2023-07-20T03:22:43;18.90;60.10
7447;DHT22;3765;47.962;7.952;2023-07-20T03:25:11;18.90;60.00
7447;DHT22;3765;47.962;7.952;2023-07-20T03:27:39;18.90;59.90
7447;DHT22;3765;47.962;7.952;2023-07-20T03:30:08;18.90;59.70
7447;DHT22;3765;47.962;7.952;2023-07-20T03:32:37;18.90;59.70
7447;DHT22;3765;47.962;7.952;2023-07-20T03:35:08;19.00;59.60
7447;DHT22;3765;47.962;7.952;2023-07-20T03:37:36;18.90;59.70
7447;DHT22;3765;47.962;7.952;2023-07-20T03:40:23;19.00;59.80
7447;DHT22;3765;47.962;7.952;2023-07-20T03:42:52;19.10;59.80
7447;DHT22;3765;47.962;7.952;2023-07-20T03:45:20;19.10;59.70
7447;DHT22;3765;47.962;7.952;2023-07-20T03:47:51;18.90;59.60
7447;DHT22;3765;47.962;7.952;2023-07-20T03:50:20;18.80;59.70
7447;DHT22;3765;47.962;7.952;2023-07-20T03:52:48;18.90;59.80
7447;DHT22;3765;47.962;7.952;2023-07-20T03:55:17;18.90;59.70
7447;DHT22;3765;47.962;7.952;2023-07-20T03:57:45;19.00;59.70
7447;DHT22;3765;47.962;7.952;2023-07-20T04:00:14;19.00;59.80
7447;DHT22;3765;47.962;7.952;2023-07-20T04:02:43;19.00;59.80
7447;DHT22;3765;47.962;7.952;2023-07-20T04:05:11;19.00;59.90
7447;DHT22;3765;47.962;7.952;2023-07-20T04:07:41;19.00;60.10
7447;DHT22;3765;47.962;7.952;2023-07-20T04:10:09;19.10;60.10
7447;DHT22;3765;47.962;7.952;2023-07-20T04:12:38;19.10;60.10
7447;DHT22;3765;47.962;7.952;2023-07-20T04:15:07;19.00;60.20
7447;DHT22;3765;47.962;7.952;2023-07-20T04:17:35;19.00;60.40
7447;DHT22;3765;47.962;7.952;2023-07-20T04:20:05;19.00;60.50
7447;DHT22;3765;47.962;7.952;2023-07-20T04:22:33;19.00;60.70
7447;DHT22;3765;47.962;7.952;2023-07-20T04:25:04;19.00;60.70
7447;DHT22;3765;47.962;7.952;2023-07-20T04:27:32;19.00;60.80
7447;DHT22;3765;47.962;7.952;2023-07-20T04:30:01;19.10;60.90
7447;DHT22;3765;47.962;7.952;2023-07-20T04:32:30;19.00;60.80
7447;DHT22;3765;47.962;7.952;2023-07-20T04:35:05;19.10;60.80
7447;DHT22;3765;47.962;7.952;2023-07-20T04:37:34;19.10;60.70
7447;DHT22;3765;47.962;7.952;2023-07-20T04:40:04;19.00;60.60
7447;DHT22;3765;47.962;7.952;2023-07-20T04:42:34;19.10;60.50
7447;DHT22;3765;47.962;7.952;2023-07-20T04:45:03;19.20;60.30
7447;DHT22;3765;47.962;7.952;2023-07-20T04:47:31;19.20;60.20
7447;DHT22;3765;47.962;7.952;2023-07-20T04:49:59;19.10;60.30
7447;DHT22;3765;47.962;7.952;2023-07-20T04:52:28;19.10;60.40
7447;DHT22;3765;47.962;7.952;2023-07-20T04:55:10;19.10;60.30
7447;DHT22;3765;47.962;7.952;2023-07-20T04:57:38;19.20;60.40
7447;DHT22;3765;47.962;7.952;2023-07-20T05:00:07;19.10;60.30
7447;DHT22;3765;47.962;7.952;2023-07-20T05:02:36;19.20;60.40
7447;DHT22;3765;47.962;7.952;2023-07-20T05:05:06;19.30;60.20
7447;DHT22;3765;47.962;7.952;2023-07-20T05:07:34;19.20;59.90
7447;DHT22;3765;47.962;7.952;2023-07-20T05:10:02;19.20;60.00
7447;DHT22;3765;47.962;7.952;2023-07-20T05:12:32;19.30;60.00
7447;DHT22;3765;47.962;7.952;2023-07-20T05:15:01;19.40;60.00
7447;DHT22;3765;47.962;7.952;2023-07-20T05:17:29;19.30;59.70
7447;DHT22;3765;47.962;7.952;2023-07-20T05:19:57;19.10;60.10
7447;DHT22;3765;47.962;7.952;2023-07-20T05:22:25;19.10;60.60
7447;DHT22;3765;47.962;7.952;2023-07-20T05:24:53;19.10;60.90
7447;DHT22;3765;47.962;7.952;2023-07-20T05:27:22;19.10;61.10
7447;DHT22;3765;47.962;7.952;2023-07-20T05:29:51;19.20;61.50
7447;DHT22;3765;47.962;7.952;2023-07-20T05:32:19;19.40;61.30
7447;DHT22;3765;47.962;7.952;2023-07-20T05:34:51;19.30;60.80
7447;DHT22;3765;47.962;7.952;2023-07-20T05:37:19;19.30;60.80
7447;DHT22;3765;47.962;7.952;2023-07-20T05:39:48;19.40;60.60
7447;DHT22;3765;47.962;7.952;2023-07-20T05:42:16;19.60;60.50
7447;DHT22;3765;47.962;7.952;2023-07-20T05:44:44;19.60;60.40
7447;DHT22;3765;47.962;7.952;2023-07-20T05:47:15;19.80;60.40
7447;DHT22;3765;47.962;7.952;2023-07-20T05:49:43;19.80;60.00
7447;DHT22;3765;47.962;7.952;2023-07-20T05:52:11;19.80;59.80
7447;DHT22;3765;47.962;7.952;2023-07-20T05:54:40;19.70;60.00
7447;DHT22;3765;47.962;7.952;2023-07-20T05:57:08;19.80;60.00
7447;DHT22;3765;47.962;7.952;2023-07-20T05:59:37;20.20;59.80
7447;DHT22;3765;47.962;7.952;2023-07-20T06:02:07;20.30;59.40
7447;DHT22;3765;47.962;7.952;2023-07-20T06:04:38;20.30;59.00
7447;DHT22;3765;47.962;7.952;2023-07-20T06:07:06;20.30;58.90
7447;DHT22;3765;47.962;7.952;2023-07-20T06:09:36;20.40;58.70
7447;DHT22;3765;47.962;7.952;2023-07-20T06:12:05;20.40;58.50
7447;DHT22;3765;47.962;7.952;2023-07-20T06:14:33;20.40;58.40
7447;DHT22;3765;47.962;7.952;2023-07-20T06:17:01;20.60;58.20
7447;DHT22;3765;47.962;7.952;2023-07-20T06:19:30;20.60;58.10
7447;DHT22;3765;47.962;7.952;2023-07-20T06:21:59;20.70;57.70
7447;DHT22;3765;47.962;7.952;2023-07-20T06:24:27;20.90;57.20
7447;DHT22;3765;47.962;7.952;2023-07-20T06:26:56;21.10;56.90
7447;DHT22;3765;47.962;7.952;2023-07-20T06:29:24;21.30;56.70
7447;DHT22;3765;47.962;7.952;2023-07-20T06:31:52;21.30;56.50
7447;DHT22;3765;47.962;7.952;2023-07-20T06:34:20;21.10;56.50
7447;DHT22;3765;47.962;7.952;2023-07-20T06:36:50;21.10;56.60
7447;DHT22;3765;47.962;7.952;2023-07-20T06:39:19;21.20;56.30
7447;DHT22;3765;47.962;7.952;2023-07-20T06:41:51;21.30;56.20
7447;DHT22;3765;47.962;7.952;2023-07-20T06:44:21;21.60;55.70
7447;DHT22;3765;47.962;7.952;2023-07-20T06:46:50;21.80;55.40
7447;DHT22;3765;47.962;7.952;2023-07-20T06:49:24;22.00;55.00
7447;DHT22;3765;47.962;7.952;2023-07-20T06:51:53;22.00;54.60
7447;DHT22;3765;47.962;7.952;2023-07-20T06:54:23;22.40;54.20
7447;DHT22;3765;47.962;7.952;2023-07-20T06:56:51;22.30;53.80
7447;DHT22;3765;47.962;7.952;2023-07-20T06:59:22;21.90;52.80
7447;DHT22;3765;47.962;7.952;2023-07-20T07:01:51;22.10;52.90
7447;DHT22;3765;47.962;7.952;2023-07-20T07:04:20;22.10;52.30
7447;DHT22;3765;47.962;7.952;2023-07-20T07:06:48;22.30;52.10
7447;DHT22;3765;47.962;7.952;2023-07-20T07:09:16;22.10;51.50
7447;DHT22;3765;47.962;7.952;2023-07-20T07:11:46;22.20;51.20
7447;DHT22;3765;47.962;7.952;2023-07-20T07:14:14;22.30;51.10
7447;DHT22;3765;47.962;7.952;2023-07-20T07:16:42;22.40;51.00
7447;DHT22;3765;47.962;7.952;2023-07-20T07:19:10;22.50;50.60
7447;DHT22;3765;47.962;7.952;2023-07-20T07:21:39;22.30;50.70
7447;DHT22;3765;47.962;7.952;2023-07-20T07:24:07;22.30;50.90
7447;DHT22;3765;47.962;7.952;2023-07-20T07:26:36;22.40;50.70
7447;DHT22;3765;47.962;7.952;2023-07-20T07:29:06;22.60;50.30
7447;DHT22;3765;47.962;7.952;2023-07-20T07:31:35;22.60;50.40
7447;DHT22;3765;47.962;7.952;2023-07-20T07:34:03;22.60;50.40
7447;DHT22;3765;47.962;7.952;2023-07-20T07:36:32;22.70;50.30
7447;DHT22;3765;47.962;7.952;2023-07-20T07:39:00;22.80;49.90
7447;DHT22;3765;47.962;7.952;2023-07-20T07:41:48;22.90;49.90
7447;DHT22;3765;47.962;7.952;2023-07-20T07:44:18;22.90;49.50
7447;DHT22;3765;47.962;7.952;2023-07-20T07:46:48;22.70;49.40
7447;DHT22;3765;47.962;7.952;2023-07-20T07:49:16;22.50;49.40
7447;DHT22;3765;47.962;7.952;2023-07-20T07:51:45;22.60;49.50
7447;DHT22;3765;47.962;7.952;2023-07-20T07:54:13;22.80;49.30
7447;DHT22;3765;47.962;7.952;2023-07-20T07:56:42;22.50;49.30
7447;DHT22;3765;47.962;7.952;2023-07-20T07:59:11;22.60;49.30
7447;DHT22;3765;47.962;7.952;2023-07-20T08:01:41;22.60;49.20
7447;DHT22;3765;47.962;7.952;2023-07-20T08:04:09;22.80;49.20
7447;DHT22;3765;47.962;7.952;2023-07-20T08:06:37;22.70;49.10
7447;DHT22;3765;47.962;7.952;2023-07-20T08:09:05;22.40;49.10
7447;DHT22;3765;47.962;7.952;2023-07-20T08:11:33;22.40;49.00
7447;DHT22;3765;47.962;7.952;2023-07-20T08:14:02;22.60;49.00
7447;DHT22;3765;47.962;7.952;2023-07-20T08:16:30;22.80;48.10
7447;DHT22;3765;47.962;7.952;2023-07-20T08:19:00;22.80;47.90
7447;DHT22;3765;47.962;7.952;2023-07-20T08:21:29;23.10;47.80
7447;DHT22;3765;47.962;7.952;2023-07-20T08:23:57;23.20;47.60
7447;DHT22;3765;47.962;7.952;2023-07-20T08:26:25;23.50;47.40
7447;DHT22;3765;47.962;7.952;2023-07-20T08:28:53;24.10;46.90
7447;DHT22;3765;47.962;7.952;2023-07-20T08:31:22;24.20;46.30
7447;DHT22;3765;47.962;7.952;2023-07-20T08:33:50;24.30;45.90
7447;DHT22;3765;47.962;7.952;2023-07-20T08:36:19;24.30;45.90
7447;DHT22;3765;47.962;7.952;2023-07-20T08:38:48;24.20;45.30
7447;DHT22;3765;47.962;7.952;2023-07-20T08:41:16;24.00;45.50
7447;DHT22;3765;47.962;7.952;2023-07-20T08:43:46;23.90;45.60
7447;DHT22;3765;47.962;7.952;2023-07-20T08:46:15;24.10;45.20
7447;DHT22;3765;47.962;7.952;2023-07-20T08:48:44;24.30;45.10
7447;DHT22;3765;47.962;7.952;2023-07-20T08:51:13;23.80;44.70
7447;DHT22;3765;47.962;7.952;2023-07-20T08:53:44;23.70;45.30
7447;DHT22;3765;47.962;7.952;2023-07-20T08:56:14;23.60;45.10
7447;DHT22;3765;47.962;7.952;2023-07-20T08:58:43;23.70;45.10
7447;DHT22;3765;47.962;7.952;2023-07-20T09:01:12;23.80;45.30
7447;DHT22;3765;47.962;7.952;2023-07-20T09:03:41;24.00;45.10
7447;DHT22;3765;47.962;7.952;2023-07-20T09:06:10;24.00;44.60
7447;DHT22;3765;47.962;7.952;2023-07-20T09:08:38;24.00;44.50
7447;DHT22;3765;47.962;7.952;2023-07-20T09:11:11;24.00;44.40
7447;DHT22;3765;47.962;7.952;2023-07-20T09:13:40;24.10;44.30
7447;DHT22;3765;47.962;7.952;2023-07-20T09:16:09;24.10;44.10
7447;DHT22;3765;47.962;7.952;2023-07-20T09:18:41;24.00;44.50
7447;DHT22;3765;47.962;7.952;2023-07-20T09:21:10;24.10;44.30
7447;DHT22;3765;47.962;7.952;2023-07-20T09:23:38;24.10;44.40
7447;DHT22;3765;47.962;7.952;2023-07-20T09:26:12;24.40;44.50
7447;DHT22;3765;47.962;7.952;2023-07-20T09:28:42;24.50;43.80
7447;DHT22;3765;47.962;7.952;2023-07-20T09:31:17;24.60;43.90
7447;DHT22;3765;47.962;7.952;2023-07-20T09:33:46;24.50;43.30
7447;DHT22;3765;47.962;7.952;2023-07-20T09:36:17;24.30;43.50
7447;DHT22;3765;47.962;7.952;2023-07-20T09:39:06;24.70;43.50
7447;DHT22;3765;47.962;7.952;2023-07-20T09:41:41;25.10;42.90
7447;DHT22;3765;47.962;7.952;2023-07-20T09:44:14;24.60;43.40
7447;DHT22;3765;47.962;7.952;2023-07-20T09:46:46;24.70;43.50
7447;DHT22;3765;47.962;7.952;2023-07-20T09:49:17;24.90;43.40
7447;DHT22;3765;47.962;7.952;2023-07-20T09:51:48;24.60;43.10
7447;DHT22;3765;47.962;7.952;2023-07-20T09:54:17;24.40;43.40
7447;DHT22;3765;47.962;7.952;2023-07-20T09:56:48;24.60;43.20
7447;DHT22;3765;47.962;7.952;2023-07-20T09:59:18;24.80;43.10
7447;DHT22;3765;47.962;7.952;2023-07-20T10:01:47;25.00;42.80
7447;DHT22;3765;47.962;7.952;2023-07-20T10:04:19;24.80;42.70
7447;DHT22;3765;47.962;7.952;2023-07-20T10:06:49;24.80;42.70
7447;DHT22;3765;47.962;7.952;2023-07-20T10:09:19;24.50;43.00
7447;DHT22;3765;47.962;7.952;2023-07-20T10:11:52;24.40;42.90
7447;DHT22;3765;47.962;7.952;2023-07-20T10:14:43;24.40;42.80
7447;DHT22;3765;47.962;7.952;2023-07-20T10:17:13;24.60;42.80
7447;DHT22;3765;47.962;7.952;2023-07-20T10:19:46;24.30;42.80
7447;DHT22;3765;47.962;7.952;2023-07-20T10:22:20;24.10;43.10
7447;DHT22;3765;47.962;7.952;2023-07-20T10:24:54;24.20;43.20
7447;DHT22;3765;47.962;7.952;2023-07-20T10:27:27;24.30;42.70
7447;DHT22;3765;47.962;7.952;2023-07-20T10:29:57;24.10;43.20
7447;DHT22;3765;47.962;7.952;2023-07-20T10:32:27;24.20;43.50
7447;DHT22;3765;47.962;7.952;2023-07-20T10:34:57;24.30;43.20
7447;DHT22;3765;47.962;7.952;2023-07-20T10:37:47;24.20;43.10
7447;DHT22;3765;47.962;7.952;2023-07-20T10:40:27;24.30;43.50
7447;DHT22;3765;47.962;7.952;2023-07-20T10:43:04;24.50;42.80
7447;DHT22;3765;47.962;7.952;2023-07-20T10:45:40;24.80;43.00
7447;DHT22;3765;47.962;7.952;2023-07-20T10:48:16;25.30;42.60
7447;DHT22;3765;47.962;7.952;2023-07-20T10:50:45;25.40;41.90
7447;DHT22;3765;47.962;7.952;2023-07-20T10:53:15;25.80;41.80
7447;DHT22;3765;47.962;7.952;2023-07-20T10:55:44;25.60;41.30
7447;DHT22;3765;47.962;7.952;2023-07-20T10:58:14;25.60;41.60
7447;DHT22;3765;47.962;7.952;2023-07-20T11:00:57;25.50;41.30
7447;DHT22;3765;47.962;7.952;2023-07-20T11:03:27;25.70;41.10
7447;DHT22;3765;47.962;7.952;2023-07-20T11:06:31;25.70;41.30
7447;DHT22;3765;47.962;7.952;2023-07-20T11:09:08;25.80;40.70
7447;DHT22;3765;47.962;7.952;2023-07-20T11:11:38;25.80;40.50
7447;DHT22;3765;47.962;7.952;2023-07-20T11:14:10;25.50;40.70
7447;DHT22;3765;47.962;7.952;2023-07-20T11:16:41;25.50;40.60
7447;DHT22;3765;47.962;7.952;2023-07-20T11:19:15;25.50;40.80
7447;DHT22;3765;47.962;7.952;2023-07-20T11:21:50;25.60;40.80
7447;DHT22;3765;47.962;7.952;2023-07-20T11:24:30;25.30;40.20
7447;DHT22;3765;47.962;7.952;2023-07-20T11:27:00;25.20;40.50
7447;DHT22;3765;47.962;7.952;2023-07-20T11:29:30;25.70;40.40
7447;DHT22;3765;47.962;7.952;2023-07-20T11:32:01;25.70;39.60
7447;DHT22;3765;47.962;7.952;2023-07-20T11:34:34;25.90;40.30
7447;DHT22;3765;47.962;7.952;2023-07-20T11:37:10;26.00;39.60
7447;DHT22;3765;47.962;7.952;2023-07-20T11:39:39;26.10;39.20
7447;DHT22;3765;47.962;7.952;2023-07-20T11:42:08;26.20;39.20
7447;DHT22;3765;47.962;7.952;2023-07-20T11:44:38;26.20;39.20
7447;DHT22;3765;47.962;7.952;2023-07-20T11:47:08;26.30;39.30
7447;DHT22;3765;47.962;7.952;2023-07-20T11:49:37;26.10;38.40
7447;DHT22;3765;47.962;7.952;2023-07-20T11:52:06;26.30;38.90
7447;DHT22;3765;47.962;7.952;2023-07-20T11:54:35;26.40;38.50
7447;DHT22;3765;47.962;7.952;2023-07-20T11:57:05;26.20;38.60
7447;DHT22;3765;47.962;7.952;2023-07-20T11:59:34;26.50;38.40
7447;DHT22;3765;47.962;7.952;2023-07-20T12:02:05;26.30;38.20
7447;DHT22;3765;47.962;7.952;2023-07-20T12:04:33;26.10;38.10
7447;DHT22;3765;47.962;7.952;2023-07-20T12:07:01;26.30;38.60
7447;DHT22;3765;47.962;7.952;2023-07-20T12:09:30;26.30;37.90
7447;DHT22;3765;47.962;7.952;2023-07-20T12:12:18;26.40;38.10
7447;DHT22;3765;47.962;7.952;2023-07-20T12:14:47;26.60;38.10
7447;DHT22;3765;47.962;7.952;2023-07-20T12:17:16;27.20;37.80
7447;DHT22;3765;47.962;7.952;2023-07-20T12:19:45;27.10;37.60
7447;DHT22;3765;47.962;7.952;2023-07-20T12:22:13;27.40;37.70
7447;DHT22;3765;47.962;7.952;2023-07-20T12:24:42;27.40;37.40
7447;DHT22;3765;47.962;7.952;2023-07-20T12:27:13;28.00;37.20
7447;DHT22;3765;47.962;7.952;2023-07-20T12:29:45;28.20;36.40
7447;DHT22;3765;47.962;7.952;2023-07-20T12:32:13;28.20;36.00
7447;DHT22;3765;47.962;7.952;2023-07-20T12:34:43;28.20;36.10
7447;DHT22;3765;47.962;7.952;2023-07-20T12:37:11;28.30;36.10
7447;DHT22;3765;47.962;7.952;2023-07-20T12:39:39;28.30;35.90
7447;DHT22;3765;47.962;7.952;2023-07-20T12:42:08;28.50;35.80
7447;DHT22;3765;47.962;7.952;2023-07-20T12:44:36;28.50;35.60
7447;DHT22;3765;47.962;7.952;2023-07-20T12:47:05;28.30;35.40
7447;DHT22;3765;47.962;7.952;2023-07-20T12:49:33;28.60;35.50
7447;DHT22;3765;47.962;7.952;2023-07-20T12:52:03;29.10;35.20
7447;DHT22;3765;47.962;7.952;2023-07-20T12:54:31;28.80;34.50
7447;DHT22;3765;47.962;7.952;2023-07-20T12:57:00;28.20;34.90
7447;DHT22;3765;47.962;7.952;2023-07-20T12:59:33;28.20;35.10
7447;DHT22;3765;47.962;7.952;2023-07-20T13:02:01;27.90;35.00
7447;DHT22;3765;47.962;7.952;2023-07-20T13:04:30;27.80;34.90
7447;DHT22;3765;47.962;7.952;2023-07-20T13:06:58;27.80;35.30
7447;DHT22;3765;47.962;7.952;2023-07-20T13:09:28;28.30;35.30
7447;DHT22;3765;47.962;7.952;2023-07-20T13:11:57;28.40;34.70
7447;DHT22;3765;47.962;7.952;2023-07-20T13:14:25;28.20;34.50
7447;DHT22;3765;47.962;7.952;2023-07-20T13:16:53;27.80;34.90
7447;DHT22;3765;47.962;7.952;2023-07-20T13:19:22;28.30;35.10
7447;DHT22;3765;47.962;7.952;2023-07-20T13:21:51;28.80;34.10
7447;DHT22;3765;47.962;7.952;2023-07-20T13:24:20;28.00;34.20
7447;DHT22;3765;47.962;7.952;2023-07-20T13:26:51;27.70;34.60
7447;DHT22;3765;47.962;7.952;2023-07-20T13:29:19;27.50;34.60
7447;DHT22;3765;47.962;7.952;2023-07-20T13:31:49;27.90;34.80
7447;DHT22;3765;47.962;7.952;2023-07-20T13:34:18;28.10;34.60
7447;DHT22;3765;47.962;7.952;2023-07-20T13:36:47;28.10;34.80
7447;DHT22;3765;47.962;7.952;2023-07-20T13:39:16;28.30;34.60
7447;DHT22;3765;47.962;7.952;2023-07-20T13:41:45;28.70;34.90
7447;DHT22;3765;47.962;7.952;2023-07-20T13:44:16;28.80;34.40
7447;DHT22;3765;47.962;7.952;2023-07-20T13:46:49;28.60;34.00
7447;DHT22;3765;47.962;7.952;2023-07-20T13:49:21;29.00;34.00
7447;DHT22;3765;47.962;7.952;2023-07-20T13:51:50;29.20;33.70
7447;DHT22;3765;47.962;7.952;2023-07-20T13:54:24;28.80;33.80
7447;DHT22;3765;47.962;7.952;2023-07-20T13:56:53;29.10;33.20
7447;DHT22;3765;47.962;7.952;2023-07-20T13:59:23;29.00;33.50
7447;DHT22;3765;47.962;7.952;2023-07-20T14:01:52;28.80;33.10
7447;DHT22;3765;47.962;7.952;2023-07-20T14:04:40;29.30;33.30
7447;DHT22;3765;47.962;7.952;2023-07-20T14:07:09;29.80;33.10
7447;DHT22;3765;47.962;7.952;2023-07-20T14:09:38;30.60;32.90
7447;DHT22;3765;47.962;7.952;2023-07-20T14:12:26;30.30;32.30
7447;DHT22;3765;47.962;7.952;2023-07-20T14:14:57;30.00;32.40
7447;DHT22;3765;47.962;7.952;2023-07-20T14:17:25;29.80;32.50
7447;DHT22;3765;47.962;7.952;2023-07-20T14:19:53;29.80;32.30
7447;DHT22;3765;47.962;7.952;2023-07-20T14:22:22;30.30;32.40
7447;DHT22;3765;47.962;7.952;2023-07-20T14:24:53;30.70;31.90
7447;DHT22;3765;47.962;7.952;2023-07-20T14:27:21;31.00;31.90
7447;DHT22;3765;47.962;7.952;2023-07-20T14:29:51;30.80;31.50
7447;DHT22;3765;47.962;7.952;2023-07-20T14:32:21;30.80;31.60
7447;DHT22;3765;47.962;7.952;2023-07-20T14:34:49;30.90;31.20
7447;DHT22;3765;47.962;7.952;2023-07-20T14:37:20;31.00;31.30
7447;DHT22;3765;47.962;7.952;2023-07-20T14:39:48;31.10;31.10
7447;DHT22;3765;47.962;7.952;2023-07-20T14:42:16;31.20;31.10
7447;DHT22;3765;47.962;7.952;2023-07-20T14:44:46;30.80;31.20
7447;DHT22;3765;47.962;7.952;2023-07-20T14:47:15;31.00;31.60
7447;DHT22;3765;47.962;7.952;2023-07-20T14:49:44;32.00;31.10
7447;DHT22;3765;47.962;7.952;2023-07-20T14:52:12;32.20;30.70
7447;DHT22;3765;47.962;7.952;2023-07-20T14:54:42;31.60;30.40
7447;DHT22;3765;47.962;7.952;2023-07-20T14:57:10;31.70;30.40
7447;DHT22;3765;47.962;7.952;2023-07-20T14:59:42;30.80;30.70
7447;DHT22;3765;47.962;7.952;2023-07-20T15:02:11;30.80;30.90
7447;DHT22;3765;47.962;7.952;2023-07-20T15:04:47;30.70;31.30
7447;DHT22;3765;47.962;7.952;2023-07-20T15:07:16;32.10;30.60
7447;DHT22;3765;47.962;7.952;2023-07-20T15:09:45;31.80;30.20
7447;DHT22;3765;47.962;7.952;2023-07-20T15:12:13;31.70;30.10
7447;DHT22;3765;47.962;7.952;2023-07-20T15:14:42;32.30;30.00
7447;DHT22;3765;47.962;7.952;2023-07-20T15:17:11;33.10;29.60
7447;DHT22;3765;47.962;7.952;2023-07-20T15:19:39;32.60;29.30
7447;DHT22;3765;47.962;7.952;2023-07-20T15:22:09;32.50;29.20
7447;DHT22;3765;47.962;7.952;2023-07-20T15:24:38;32.10;29.20
7447;DHT22;3765;47.962;7.952;2023-07-20T15:27:06;32.90;29.20
7447;DHT22;3765;47.962;7.952;2023-07-20T15:29:34;33.70;28.50
7447;DHT22;3765;47.962;7.952;2023-07-20T15:32:04;34.10;28.20
7447;DHT22;3765;47.962;7.952;2023-07-20T15:34:33;34.80;28.00
7447;DHT22;3765;47.962;7.952;2023-07-20T15:37:01;35.70;27.30
7447;DHT22;3765;47.962;7.952;2023-07-20T15:39:31;36.00;26.90
7447;DHT22;3765;47.962;7.952;2023-07-20T15:41:59;36.30;26.50
7447;DHT22;3765;47.962;7.952;2023-07-20T15:44:28;35.90;26.10
7447;DHT22;3765;47.962;7.952;2023-07-20T15:46:56;35.20;26.40
7447;DHT22;3765;47.962;7.952;2023-07-20T15:49:27;34.40;26.70
7447;DHT22;3765;47.962;7.952;2023-07-20T15:51:59;33.00;27.20
7447;DHT22;3765;47.962;7.952;2023-07-20T15:54:27;33.50;27.40
7447;DHT22;3765;47.962;7.952;2023-07-20T15:56:56;34.40;27.10
7447;DHT22;3765;47.962;7.952;2023-07-20T15:59:25;33.70;27.00
7447;DHT22;3765;47.962;7.952;2023-07-20T16:01:53;34.60;27.00
7447;DHT22;3765;47.962;7.952;2023-07-20T16:04:21;35.70;26.60
7447;DHT22;3765;47.962;7.952;2023-07-20T16:06:49;37.20;25.60
7447;DHT22;3765;47.962;7.952;2023-07-20T16:09:17;38.00;25.00
7447;DHT22;3765;47.962;7.952;2023-07-20T16:11:45;38.70;24.20
7447;DHT22;3765;47.962;7.952;2023-07-20T16:14:15;40.00;23.30
7447;DHT22;3765;47.962;7.952;2023-07-20T16:16:46;38.50;23.70
7447;DHT22;3765;47.962;7.952;2023-07-20T16:19:14;37.80;24.10
7447;DHT22;3765;47.962;7.952;2023-07-20T16:21:42;38.60;23.60